Time;durP1;ratioP1;P1;durP2;ratioP2;P2;SDS_P1;SDS_P2;PMS_P1;PMS_P2;Temp;Humidity;BMP_temperature;BMP_pressure;BME280_temperature;BME280_humidity;BME280_pressure;Samples;Min_cycle;Max_cycle;Signal;HPM_P1;HPM_P2
2023/02/12 00:00:01;;;;;;;18.92;14.82;;;8.60;99.90;;;;;;4863687;29;20537;-79
2023/02/12 00:02:40;;;;;;;20.67;15.02;;;8.60;99.90;;;;;;4862765;29;20046;-79
2023/02/12 00:05:07;;;;;;;21.52;15.27;;;8.50;99.90;;;;;;4862824;29;20568;-81
2023/02/12 00:07:34;;;;;;;15.52;12.95;;;8.50;99.90;;;;;;4861292;29;20053;-80
2023/02/12 00:10:00;;;;;;;18.08;15.90;;;8.60;99.90;;;;;;4862647;29;20052;-80
2023/02/12 00:12:27;;;;;;;17.17;14.50;;;8.50;99.90;;;;;;4874621;29;20041;-80
2023/02/12 00:14:53;;;;;;;18.38;13.70;;;8.50;99.90;;;;;;4895625;29;20049;-78
2023/02/12 00:17:20;;;;;;;17.85;15.07;;;8.50;99.90;;;;;;4896530;29;20532;-81
2023/02/12 00:19:47;;;;;;;18.10;12.65;;;8.50;99.90;;;;;;4881295;29;20057;-82
2023/02/12 00:22:14;;;;;;;17.20;12.90;;;8.60;99.90;;;;;;4895378;29;20121;-79
2023/02/12 00:24:41;;;;;;;16.77;13.68;;;8.60;99.90;;;;;;4896695;29;20051;-80
2023/02/12 00:27:07;;;;;;;15.50;13.65;;;8.50;99.90;;;;;;4896481;29;20045;-80
2023/02/12 00:29:34;;;;;;;19.00;13.88;;;8.60;99.90;;;;;;4879286;29;20072;-80
2023/02/12 00:32:01;;;;;;;20.58;16.45;;;8.60;99.90;;;;;;4881764;29;20361;-80
2023/02/12 00:34:27;;;;;;;20.20;16.27;;;8.60;99.90;;;;;;4895180;29;20476;-79
2023/02/12 00:36:57;;;;;;;18.48;15.23;;;8.60;99.90;;;;;;4896159;29;20048;-81
2023/02/12 00:39:25;;;;;;;18.35;15.48;;;8.60;99.90;;;;;;4880184;29;20053;-80
2023/02/12 00:41:52;;;;;;;19.23;15.50;;;8.60;99.90;;;;;;4880303;29;20346;-80
2023/02/12 00:44:18;;;;;;;16.98;14.95;;;8.60;99.90;;;;;;4880524;29;20357;-81
2023/02/12 00:46:45;;;;;;;19.88;15.32;;;8.60;99.90;;;;;;4896077;29;20062;-80
2023/02/12 00:49:13;;;;;;;21.23;15.02;;;8.60;99.90;;;;;;4878967;29;20057;-80
2023/02/12 00:51:39;;;;;;;17.85;13.32;;;8.50;99.90;;;;;;4880335;29;20053;-80
2023/02/12 00:54:08;;;;;;;15.95;13.50;;;8.60;99.90;;;;;;4894886;29;20399;-81
2023/02/12 00:56:36;;;;;;;19.35;14.00;;;8.60;99.90;;;;;;4880331;29;20056;-81
2023/02/12 00:59:03;;;;;;;14.95;12.23;;;8.50;99.90;;;;;;4880955;29;20140;-80
2023/02/12 01:01:29;;;;;;;15.48;13.15;;;8.50;99.90;;;;;;4880152;29;20116;-82
2023/02/12 01:03:56;;;;;;;14.55;12.30;;;8.50;99.90;;;;;;4881088;29;20042;-79
2023/02/12 01:06:24;;;;;;;18.02;14.30;;;8.60;99.90;;;;;;4895697;29;20060;-80
2023/02/12 01:08:51;;;;;;;15.98;13.25;;;8.50;99.90;;;;;;4880272;29;20081;-80
2023/02/12 01:11:18;;;;;;;20.60;15.88;;;8.50;99.90;;;;;;4895537;29;20055;-80
2023/02/12 01:13:44;;;;;;;15.13;13.10;;;8.50;99.90;;;;;;4880947;29;20049;-80
2023/02/12 01:16:12;;;;;;;17.35;13.48;;;8.50;99.90;;;;;;4879742;29;20045;-82
2023/02/12 01:18:39;;;;;;;18.02;14.07;;;8.50;99.90;;;;;;4895164;29;20053;-80
2023/02/12 01:21:05;;;;;;;17.25;13.77;;;8.50;99.90;;;;;;4894348;29;20044;-79
2023/02/12 01:23:32;;;;;;;21.13;15.23;;;8.50;99.90;;;;;;4879855;29;20045;-81
2023/02/12 01:25:59;;;;;;;22.98;15.10;;;8.50;99.90;;;;;;4880946;29;20376;-82
2023/02/12 01:28:25;;;;;;;18.98;15.48;;;8.40;99.90;;;;;;4879558;29;20045;-82
2023/02/12 01:30:52;;;;;;;22.98;17.88;;;8.50;99.90;;;;;;4895247;29;20433;-82
2023/02/12 01:33:19;;;;;;;21.60;18.25;;;8.50;99.90;;;;;;4895491;29;20056;-83
2023/02/12 01:35:46;;;;;;;21.33;17.33;;;8.50;99.90;;;;;;4879737;29;20437;-81
2023/02/12 01:38:13;;;;;;;21.73;16.50;;;8.50;99.90;;;;;;4879424;29;20465;-80
2023/02/12 01:40:39;;;;;;;16.75;14.95;;;8.60;99.90;;;;;;4894543;29;20037;-81
2023/02/12 01:43:06;;;;;;;22.17;15.35;;;8.60;99.90;;;;;;4880675;29;20045;-80
2023/02/12 01:45:33;;;;;;;17.17;13.10;;;8.60;99.90;;;;;;4895196;29;20045;-79
2023/02/12 01:47:59;;;;;;;15.88;12.75;;;8.60;99.90;;;;;;4879536;29;20116;-81
2023/02/12 01:50:26;;;;;;;14.25;12.48;;;8.60;99.90;;;;;;4879727;29;20097;-80
2023/02/12 01:52:53;;;;;;;15.32;11.45;;;8.60;99.90;;;;;;4880632;29;20139;-80
2023/02/12 01:55:19;;;;;;;16.10;12.20;;;8.60;99.90;;;;;;4894638;29;20041;-82
2023/02/12 01:57:46;;;;;;;15.35;11.93;;;8.60;99.90;;;;;;4896129;29;20089;-82
2023/02/12 02:00:13;;;;;;;16.13;11.70;;;8.60;99.90;;;;;;4867841;29;20051;-81
2023/02/12 02:02:39;;;;;;;16.70;11.60;;;8.60;99.90;;;;;;4882787;29;20516;-81
2023/02/12 02:05:06;;;;;;;16.75;12.30;;;8.60;99.90;;;;;;4884984;29;20047;-82
2023/02/12 02:07:33;;;;;;;17.70;12.43;;;8.60;99.90;;;;;;4882898;29;20125;-83
2023/02/12 02:09:59;;;;;;;14.35;11.45;;;8.60;99.90;;;;;;4868935;29;20082;-81
2023/02/12 02:15:12;;;;;;;15.57;10.43;;;8.60;99.90;;;;;;4883282;29;20052;-81
2023/02/12 02:17:39;;;;;;;12.15;10.07;;;8.60;99.90;;;;;;4883825;29;20368;-81
2023/02/12 02:20:06;;;;;;;15.20;11.50;;;8.60;99.90;;;;;;4883950;29;20136;-81
2023/02/12 02:22:32;;;;;;;14.82;10.35;;;8.60;99.90;;;;;;4882034;29;20376;-79
2023/02/12 02:24:59;;;;;;;14.23;10.88;;;8.60;99.90;;;;;;4898641;29;20055;-80
2023/02/12 02:27:26;;;;;;;14.55;10.85;;;8.60;99.90;;;;;;4897368;29;20049;-80
2023/02/12 02:29:53;;;;;;;13.90;10.77;;;8.60;99.90;;;;;;4898609;29;20055;-80
2023/02/12 02:32:19;;;;;;;11.60;10.02;;;8.50;99.90;;;;;;4898513;29;20041;-80
2023/02/12 02:34:46;;;;;;;15.43;9.90;;;8.50;99.90;;;;;;4881818;29;20052;-80
2023/02/12 02:37:12;;;;;;;12.90;9.93;;;8.50;99.90;;;;;;4898493;29;20052;-80
2023/02/12 02:39:39;;;;;;;13.73;10.45;;;8.50;99.90;;;;;;4883286;29;20120;-81
2023/02/12 02:42:06;;;;;;;12.82;9.90;;;8.60;99.90;;;;;;4882771;29;20045;-80
2023/02/12 02:44:32;;;;;;;11.77;10.20;;;8.50;99.90;;;;;;4883772;29;20465;-81
2023/02/12 02:46:59;;;;;;;14.20;9.82;;;8.50;99.90;;;;;;4898405;29;20069;-81
2023/02/12 02:49:26;;;;;;;14.65;10.05;;;8.60;99.90;;;;;;4882332;29;20044;-82
2023/02/12 02:51:52;;;;;;;12.50;9.77;;;8.60;99.90;;;;;;4898374;29;20052;-80
2023/02/12 02:54:19;;;;;;;13.38;10.52;;;8.50;99.90;;;;;;4897109;29;20052;-80
2023/02/12 02:56:45;;;;;;;14.18;10.20;;;8.60;99.90;;;;;;4882413;29;20056;-82
2023/02/12 02:59:12;;;;;;;14.43;10.80;;;8.50;99.90;;;;;;4883083;29;20056;-81
2023/02/12 03:01:39;;;;;;;15.60;10.70;;;8.40;99.90;;;;;;4896999;29;20051;-81
2023/02/12 03:04:06;;;;;;;11.82;9.63;;;8.40;99.90;;;;;;4882428;29;20117;-82
2023/02/12 03:06:32;;;;;;;15.40;10.77;;;8.40;99.90;;;;;;4896469;29;20113;-81
2023/02/12 03:08:59;;;;;;;12.73;10.18;;;8.40;99.90;;;;;;4881834;29;20041;-83
2023/02/12 03:11:25;;;;;;;16.65;11.63;;;8.30;99.90;;;;;;4882374;29;20068;-82
2023/02/12 03:13:52;;;;;;;11.85;9.07;;;8.30;99.90;;;;;;4897826;29;20052;-82
2023/02/12 03:16:19;;;;;;;10.82;8.57;;;8.30;99.90;;;;;;4882467;29;20075;-84
2023/02/12 03:18:45;;;;;;;18.48;10.95;;;8.30;99.90;;;;;;4897076;29;20061;-81
2023/02/12 03:21:12;;;;;;;15.68;10.57;;;8.30;99.90;;;;;;4882134;29;20038;-81
2023/02/12 03:23:39;;;;;;;11.98;10.55;;;8.20;99.90;;;;;;4883011;29;20067;-82
2023/02/12 03:26:05;;;;;;;14.68;9.40;;;8.20;99.90;;;;;;4897648;29;20108;-83
2023/02/12 03:28:32;;;;;;;11.77;9.05;;;8.20;99.90;;;;;;4896180;29;20052;-83
2023/02/12 03:30:58;;;;;;;14.07;9.38;;;8.10;99.90;;;;;;4897398;29;20037;-82
2023/02/12 03:33:27;;;;;;;16.88;9.45;;;8.10;99.90;;;;;;4897723;29;20117;-81
2023/02/12 03:35:55;;;;;;;12.23;10.05;;;8.10;99.90;;;;;;4896421;29;20041;-79
2023/02/12 03:38:22;;;;;;;15.38;11.55;;;8.10;99.90;;;;;;4882566;29;20127;-81
2023/02/12 03:40:49;;;;;;;13.68;10.02;;;8.20;99.90;;;;;;4881562;29;20403;-81
2023/02/12 03:43:15;;;;;;;11.52;9.63;;;8.20;99.90;;;;;;4897273;29;20061;-81
2023/02/12 03:45:42;;;;;;;12.98;9.75;;;8.20;99.90;;;;;;4897119;29;20041;-82
2023/02/12 03:48:09;;;;;;;12.27;9.75;;;8.10;99.90;;;;;;4881044;29;20044;-80
2023/02/12 03:50:36;;;;;;;12.75;9.98;;;8.10;99.90;;;;;;4896886;29;20041;-81
2023/02/12 03:53:02;;;;;;;10.85;9.00;;;8.10;99.90;;;;;;4896873;29;20350;-81
2023/02/12 03:55:29;;;;;;;12.05;9.20;;;8.10;99.90;;;;;;4881414;29;20060;-82
2023/02/12 03:57:55;;;;;;;12.43;9.15;;;8.10;99.90;;;;;;4881832;29;20053;-82
2023/02/12 04:00:22;;;;;;;14.50;10.93;;;8.10;99.90;;;;;;4896783;29;20104;-83
2023/02/12 04:02:49;;;;;;;12.15;10.15;;;8.00;99.90;;;;;;4895712;29;20041;-82
2023/02/12 04:05:15;;;;;;;13.18;10.60;;;8.00;99.90;;;;;;4882292;29;20460;-83
2023/02/12 04:07:42;;;;;;;12.07;9.85;;;8.00;99.90;;;;;;4880713;29;20059;-83
2023/02/12 04:10:09;;;;;;;15.07;10.77;;;7.90;99.90;;;;;;4882170;29;20590;-82
2023/02/12 04:12:35;;;;;;;15.98;11.30;;;8.00;99.90;;;;;;4896707;29;20053;-81
2023/02/12 04:15:03;;;;;;;15.45;11.82;;;8.00;99.90;;;;;;4864680;29;20079;-82
2023/02/12 04:17:30;;;;;;;17.73;11.80;;;8.00;99.90;;;;;;4880321;29;20049;-81
2023/02/12 04:19:57;;;;;;;19.88;12.02;;;8.10;99.90;;;;;;4880830;29;20053;-82
2023/02/12 04:22:23;;;;;;;18.75;12.30;;;8.00;99.90;;;;;;4895604;29;20063;-81
2023/02/12 04:24:50;;;;;;;11.57;8.82;;;8.00;99.90;;;;;;4896423;29;20064;-81
2023/02/12 04:27:16;;;;;;;12.82;8.25;;;7.90;99.90;;;;;;4879674;29;20041;-80
2023/02/12 04:29:43;;;;;;;11.88;9.25;;;7.90;99.90;;;;;;4896568;29;20372;-83
2023/02/12 04:32:10;;;;;;;12.90;9.05;;;7.90;99.90;;;;;;4896246;29;20049;-82
2023/02/12 04:34:36;;;;;;;15.82;9.13;;;8.00;99.90;;;;;;4879722;29;20052;-81
2023/02/12 04:37:03;;;;;;;11.98;8.80;;;8.00;99.90;;;;;;4881603;29;20048;-82
2023/02/12 04:39:29;;;;;;;10.27;9.02;;;8.00;99.90;;;;;;4864953;29;20041;-81
2023/02/12 04:41:56;;;;;;;14.13;10.10;;;8.10;99.90;;;;;;4880622;29;20041;-81
2023/02/12 04:44:23;;;;;;;11.75;10.32;;;8.00;99.90;;;;;;4881603;29;20120;-80
2023/02/12 04:46:49;;;;;;;10.13;8.55;;;8.00;99.90;;;;;;4881395;29;20052;-81
2023/02/12 04:49:16;;;;;;;11.68;8.95;;;8.00;99.90;;;;;;4880221;29;20112;-81
2023/02/12 04:51:42;;;;;;;10.90;8.75;;;8.00;99.90;;;;;;4882437;29;20061;-81
2023/02/12 04:54:09;;;;;;;10.93;8.32;;;8.00;99.90;;;;;;4865059;29;20057;-81
2023/02/12 04:56:36;;;;;;;12.35;8.70;;;7.90;99.90;;;;;;4880202;29;20361;-83
2023/02/12 04:59:02;;;;;;;13.90;9.18;;;7.90;99.90;;;;;;4879911;29;20057;-83
2023/02/12 05:01:29;;;;;;;14.27;9.82;;;7.90;99.90;;;;;;4863757;29;20059;-83
2023/02/12 05:03:57;;;;;;;13.10;9.40;;;7.90;99.90;;;;;;4881126;29;20046;-80
2023/02/12 05:06:23;;;;;;;10.23;8.70;;;7.90;99.90;;;;;;4880155;29;20392;-81
2023/02/12 05:08:50;;;;;;;12.32;8.80;;;7.90;99.90;;;;;;4879682;29;20519;-81
2023/02/12 05:11:16;;;;;;;12.40;8.70;;;7.90;99.90;;;;;;4880062;29;20045;-81
2023/02/12 05:13:43;;;;;;;10.02;8.35;;;7.90;99.90;;;;;;4880866;29;20056;-81
2023/02/12 05:16:10;;;;;;;12.13;8.57;;;8.00;99.90;;;;;;4879901;29;20051;-81
2023/02/12 05:18:36;;;;;;;12.32;8.40;;;8.00;99.90;;;;;;4880475;29;20119;-81
2023/02/12 05:21:03;;;;;;;12.23;9.52;;;8.00;99.90;;;;;;4894520;29;20492;-80
2023/02/12 05:23:30;;;;;;;14.75;10.07;;;8.00;99.90;;;;;;4879881;29;20044;-81
2023/02/12 05:25:57;;;;;;;13.35;9.95;;;8.00;99.90;;;;;;4895397;29;20041;-81
2023/02/12 05:28:23;;;;;;;11.02;8.77;;;8.00;99.90;;;;;;4878918;29;20056;-80
2023/02/12 05:30:50;;;;;;;13.20;9.07;;;8.00;99.90;;;;;;4895006;29;20041;-80
2023/02/12 05:33:16;;;;;;;10.75;9.05;;;8.00;99.90;;;;;;4895358;29;20044;-80
2023/02/12 05:35:43;;;;;;;13.65;10.38;;;8.00;99.90;;;;;;4879743;29;20052;-78
2023/02/12 05:38:10;;;;;;;12.77;10.10;;;8.00;99.90;;;;;;4894917;29;20048;-80
2023/02/12 05:40:37;;;;;;;13.82;9.98;;;8.00;99.90;;;;;;4879846;29;20385;-80
2023/02/12 05:43:03;;;;;;;11.15;9.52;;;7.90;99.90;;;;;;4880474;29;20045;-82
2023/02/12 05:45:30;;;;;;;12.90;10.40;;;8.00;99.90;;;;;;4895207;29;20480;-80
2023/02/12 05:47:56;;;;;;;12.75;9.43;;;8.00;99.90;;;;;;4879286;29;20372;-79
2023/02/12 05:50:23;;;;;;;14.35;9.80;;;7.90;99.90;;;;;;4880636;29;20037;-81
2023/02/12 05:52:58;;;;;;;13.98;10.82;;;8.00;99.90;;;;;;4895299;29;20489;-81
2023/02/12 05:55:25;;;;;;;13.38;10.70;;;8.00;99.90;;;;;;4879466;29;20437;-82
2023/02/12 05:57:51;;;;;;;15.75;11.00;;;8.00;99.90;;;;;;4879244;29;20044;-82
2023/02/12 06:00:18;;;;;;;16.58;10.63;;;8.00;99.90;;;;;;4895211;29;20140;-81
2023/02/12 06:02:45;;;;;;;17.33;10.20;;;8.00;99.90;;;;;;4878813;29;20059;-82
2023/02/12 06:05:11;;;;;;;17.52;12.48;;;8.00;99.90;;;;;;4880496;29;20041;-80
2023/02/12 06:07:38;;;;;;;16.55;11.30;;;8.00;99.90;;;;;;4879086;29;20045;-81
2023/02/12 06:10:05;;;;;;;19.95;11.13;;;8.00;99.90;;;;;;4880421;29;20056;-81
2023/02/12 06:12:32;;;;;;;14.90;10.55;;;8.00;99.90;;;;;;4880297;29;20460;-82
2023/02/12 06:14:59;;;;;;;15.23;10.73;;;8.00;99.90;;;;;;4894173;29;20064;-81
2023/02/12 06:17:26;;;;;;;14.07;10.20;;;8.00;99.90;;;;;;4880151;29;20072;-82
2023/02/12 06:19:52;;;;;;;20.83;10.77;;;8.00;99.90;;;;;;4894795;29;20049;-81
2023/02/12 06:22:19;;;;;;;11.88;9.55;;;8.00;99.90;;;;;;4878233;29;20045;-81
2023/02/12 06:24:45;;;;;;;12.18;9.57;;;8.00;99.90;;;;;;4880441;29;20045;-80
2023/02/12 06:27:12;;;;;;;13.45;10.52;;;7.90;99.90;;;;;;4894622;29;20635;-81
2023/02/12 06:29:39;;;;;;;16.35;10.20;;;7.90;99.90;;;;;;4879315;29;20480;-80
2023/02/12 06:32:07;;;;;;;14.32;9.73;;;7.90;99.90;;;;;;4880338;29;20112;-82
2023/02/12 06:34:34;;;;;;;14.00;9.82;;;8.00;99.90;;;;;;4879359;29;20101;-81
2023/02/12 06:37:00;;;;;;;15.45;10.13;;;7.90;99.90;;;;;;4894528;29;20045;-81
2023/02/12 06:39:27;;;;;;;12.82;9.50;;;8.00;99.90;;;;;;4894723;29;20064;-81
2023/02/12 06:41:53;;;;;;;11.80;9.43;;;8.00;99.90;;;;;;4882354;29;20037;-81
2023/02/12 06:44:20;;;;;;;14.90;10.57;;;7.90;99.90;;;;;;4883697;29;20068;-81
2023/02/12 06:46:47;;;;;;;12.23;9.63;;;7.90;99.90;;;;;;4898372;29;20053;-81
2023/02/12 06:49:15;;;;;;;14.13;9.50;;;7.90;99.90;;;;;;4896832;29;20045;-80
2023/02/12 06:51:41;;;;;;;13.30;9.23;;;7.90;99.90;;;;;;4883682;29;20045;-81
2023/02/12 06:54:08;;;;;;;14.48;9.35;;;7.90;99.90;;;;;;4896847;29;20120;-81
2023/02/12 06:56:35;;;;;;;12.75;9.32;;;7.90;99.90;;;;;;4883471;29;20068;-81
2023/02/12 06:59:01;;;;;;;14.23;9.75;;;7.90;99.90;;;;;;4897530;29;20049;-81
2023/02/12 07:01:28;;;;;;;16.55;10.70;;;7.90;99.90;;;;;;4896845;29;20041;-81
2023/02/12 07:03:54;;;;;;;13.18;9.65;;;7.90;99.90;;;;;;4883191;29;20067;-80
2023/02/12 07:06:21;;;;;;;14.55;10.48;;;7.90;99.90;;;;;;4897689;29;20060;-80
2023/02/12 07:08:48;;;;;;;13.77;9.52;;;7.80;99.90;;;;;;4881804;29;20048;-81
2023/02/12 07:11:14;;;;;;;13.60;9.00;;;7.80;99.90;;;;;;4883061;29;20041;-81
2023/02/12 07:13:41;;;;;;;12.25;10.43;;;7.80;99.90;;;;;;4883117;29;20392;-81
2023/02/12 07:16:07;;;;;;;11.15;8.50;;;7.80;99.90;;;;;;4882274;29;20052;-80
2023/02/12 07:18:34;;;;;;;13.43;8.73;;;7.80;99.90;;;;;;4882453;29;20377;-82
2023/02/12 07:21:01;;;;;;;16.50;8.88;;;7.80;99.90;;;;;;4880699;29;20191;-82
2023/02/12 07:23:28;;;;;;;11.88;8.70;;;7.80;99.90;;;;;;4897496;29;20045;-80
2023/02/12 07:25:54;;;;;;;12.27;9.70;;;7.70;99.90;;;;;;4881863;29;20049;-80
2023/02/12 07:28:21;;;;;;;14.52;8.68;;;7.80;99.90;;;;;;4896088;29;20060;-80
2023/02/12 07:30:48;;;;;;;12.55;9.80;;;7.80;99.90;;;;;;4897469;29;20053;-81
2023/02/12 07:33:15;;;;;;;13.80;9.25;;;7.70;99.90;;;;;;4897433;29;20049;-82
2023/02/12 07:35:41;;;;;;;15.68;8.77;;;7.70;99.90;;;;;;4896519;29;20045;-82
2023/02/12 07:38:08;;;;;;;13.02;8.75;;;7.80;99.90;;;;;;4896994;29;20052;-82
2023/02/12 07:40:35;;;;;;;12.20;8.90;;;7.80;99.90;;;;;;4881572;29;20048;-83
2023/02/12 07:43:02;;;;;;;12.38;8.27;;;7.70;99.90;;;;;;4897485;29;20045;-82
2023/02/12 07:45:32;;;;;;;13.82;9.40;;;7.80;99.90;;;;;;4897343;29;20040;-82
2023/02/12 07:47:59;;;;;;;12.18;7.47;;;7.80;99.90;;;;;;4895441;29;20053;-82
2023/02/12 07:50:26;;;;;;;12.60;8.45;;;7.80;99.90;;;;;;4882517;29;20064;-81
2023/02/12 07:52:52;;;;;;;10.95;8.30;;;7.70;99.90;;;;;;4882466;29;20061;-82
2023/02/12 07:55:19;;;;;;;10.80;8.10;;;7.70;99.90;;;;;;4896071;29;20045;-81
2023/02/12 07:57:46;;;;;;;11.60;7.65;;;7.70;99.90;;;;;;4896636;29;20437;-81
2023/02/12 08:00:12;;;;;;;14.32;8.95;;;7.70;99.90;;;;;;4896854;29;20389;-82
2023/02/12 08:02:39;;;;;;;12.20;7.90;;;7.70;99.90;;;;;;4881278;29;20099;-81
2023/02/12 08:05:06;;;;;;;9.75;7.30;;;7.70;99.90;;;;;;4881296;29;20041;-81
2023/02/12 08:07:32;;;;;;;10.82;6.72;;;7.70;99.90;;;;;;4880745;29;20041;-81
2023/02/12 08:09:59;;;;;;;9.40;6.45;;;7.80;99.90;;;;;;4896663;29;20053;-81
2023/02/12 08:12:26;;;;;;;10.82;7.20;;;7.80;99.90;;;;;;4881959;29;20135;-81
2023/02/12 08:14:53;;;;;;;8.52;7.05;;;7.90;99.90;;;;;;4880071;29;20052;-84
2023/02/12 08:17:20;;;;;;;8.50;6.00;;;7.90;99.90;;;;;;4896359;29;20057;-81
2023/02/12 08:19:46;;;;;;;12.63;7.53;;;7.90;99.90;;;;;;4896376;29;20053;-81
2023/02/12 08:22:13;;;;;;;8.48;6.97;;;8.00;99.90;;;;;;4895521;29;20049;-80
2023/02/12 08:24:41;;;;;;;11.20;6.95;;;7.90;99.90;;;;;;4881957;29;20449;-79
2023/02/12 08:27:07;;;;;;;10.77;6.55;;;8.00;99.90;;;;;;4881606;29;20128;-81
2023/02/12 08:29:34;;;;;;;12.10;7.40;;;8.00;99.90;;;;;;4880751;29;20045;-81
2023/02/12 08:32:01;;;;;;;11.00;7.60;;;8.00;99.90;;;;;;4894477;29;20495;-81
2023/02/12 08:34:28;;;;;;;9.85;6.75;;;8.00;99.90;;;;;;4895223;29;20068;-81
2023/02/12 08:36:54;;;;;;;12.07;7.50;;;8.00;99.90;;;;;;4895869;29;20059;-82
2023/02/12 08:39:21;;;;;;;12.27;7.97;;;8.10;99.90;;;;;;4896261;29;20099;-81
2023/02/12 08:41:47;;;;;;;9.60;6.78;;;8.10;99.90;;;;;;4894985;29;20537;-80
2023/02/12 08:44:14;;;;;;;10.52;7.35;;;8.10;99.90;;;;;;4898993;29;20109;-81
2023/02/12 08:46:41;;;;;;;14.13;7.20;;;8.10;99.90;;;;;;4896550;29;20052;-82
2023/02/12 08:49:08;;;;;;;12.27;7.72;;;8.20;99.90;;;;;;4879485;29;20057;-81
2023/02/12 08:51:36;;;;;;;10.77;7.30;;;8.20;99.90;;;;;;4881745;29;20116;-80
2023/02/12 08:54:02;;;;;;;10.30;6.65;;;8.20;99.90;;;;;;4880518;29;20509;-81
2023/02/12 08:56:29;;;;;;;9.20;7.32;;;8.20;99.90;;;;;;4896123;29;20057;-81
2023/02/12 08:58:56;;;;;;;10.85;6.93;;;8.20;99.90;;;;;;4895481;29;20064;-81
2023/02/12 09:01:22;;;;;;;9.48;6.03;;;8.20;99.90;;;;;;4894753;29;20049;-81
2023/02/12 09:03:49;;;;;;;9.82;6.65;;;8.30;99.90;;;;;;4893866;29;20072;-80
2023/02/12 09:06:16;;;;;;;9.00;5.93;;;8.40;99.90;;;;;;4880942;29;20132;-80
2023/02/12 09:08:42;;;;;;;8.57;5.03;;;8.40;99.90;;;;;;4894300;29;20045;-80
2023/02/12 09:11:09;;;;;;;8.98;5.28;;;8.40;99.90;;;;;;4880897;29;20049;-81
2023/02/12 09:13:35;;;;;;;8.40;4.57;;;8.50;99.90;;;;;;4895663;29;20044;-81
2023/02/12 09:16:02;;;;;;;7.55;5.25;;;8.50;99.90;;;;;;4894496;29;20057;-82
2023/02/12 09:18:29;;;;;;;6.50;4.97;;;8.50;99.90;;;;;;4880619;29;20045;-82
2023/02/12 09:20:55;;;;;;;7.72;4.50;;;8.60;99.90;;;;;;4878814;29;20310;-80
2023/02/12 09:23:22;;;;;;;5.75;4.75;;;8.60;99.90;;;;;;4880918;29;20048;-78
2023/02/12 09:25:49;;;;;;;6.68;4.25;;;8.60;99.90;;;;;;4876679;29;20045;-80
2023/02/12 09:28:15;;;;;;;6.90;4.95;;;8.50;99.90;;;;;;4878473;29;20037;-81
2023/02/12 09:30:42;;;;;;;6.40;4.55;;;8.40;99.90;;;;;;4880777;29;20053;-81
2023/02/12 09:33:09;;;;;;;6.68;4.55;;;8.40;99.90;;;;;;4880855;29;20120;-81
2023/02/12 09:35:35;;;;;;;7.50;4.80;;;8.50;99.90;;;;;;4879590;29;20051;-79
2023/02/12 09:38:02;;;;;;;5.88;4.10;;;8.50;99.90;;;;;;4887003;29;20041;-82
2023/02/12 09:40:28;;;;;;;7.55;4.80;;;8.60;99.90;;;;;;4898579;29;20044;-82
2023/02/12 09:42:55;;;;;;;6.80;4.93;;;8.60;99.90;;;;;;4880253;29;20105;-82
2023/02/12 09:48:07;;;;;;;6.25;4.18;;;8.70;99.90;;;;;;4879974;29;20124;-78
2023/02/12 09:50:35;;;;;;;5.90;3.72;;;8.80;99.90;;;;;;4880860;29;20053;-80
2023/02/12 09:53:01;;;;;;;5.72;3.63;;;8.80;99.90;;;;;;4879775;29;20143;-82
2023/02/12 09:55:28;;;;;;;4.60;2.97;;;8.80;99.90;;;;;;4879477;29;20128;-79
2023/02/12 09:57:55;;;;;;;4.45;3.00;;;8.90;99.90;;;;;;4880397;29;20041;-82
2023/02/12 10:00:21;;;;;;;4.20;3.15;;;8.90;99.90;;;;;;4880359;29;20048;-81
2023/02/12 10:02:48;;;;;;;4.85;3.05;;;8.80;99.90;;;;;;4879520;29;20380;-79
2023/02/12 10:05:16;;;;;;;5.22;2.58;;;8.80;99.90;;;;;;4895049;29;20110;-79
2023/02/12 10:07:42;;;;;;;2.78;2.17;;;8.90;99.90;;;;;;4878134;29;20059;-79
2023/02/12 10:10:09;;;;;;;13.68;3.42;;;9.00;99.90;;;;;;4879474;29;20380;-80
2023/02/12 10:12:36;;;;;;;3.03;1.83;;;9.10;99.90;;;;;;4895021;29;20053;-82
2023/02/12 10:15:02;;;;;;;3.40;1.80;;;9.20;99.90;;;;;;4894854;29;20120;-82
2023/02/12 10:17:29;;;;;;;2.75;1.85;;;9.20;99.90;;;;;;4883628;29;20084;-80
2023/02/12 10:19:59;;;;;;;2.85;1.75;;;9.20;99.90;;;;;;4899867;29;20053;-80
2023/02/12 10:22:26;;;;;;;3.67;1.80;;;9.20;99.90;;;;;;4883203;29;20108;-80
2023/02/12 10:24:53;;;;;;;2.10;1.20;;;9.30;99.90;;;;;;4884149;29;20037;-80
2023/02/12 10:27:19;;;;;;;3.47;2.00;;;9.30;99.90;;;;;;4897387;29;20507;-79
2023/02/12 10:29:46;;;;;;;3.65;2.15;;;9.30;99.90;;;;;;4884176;29;20053;-82
2023/02/12 10:32:13;;;;;;;2.88;1.60;;;9.30;99.90;;;;;;4883941;29;20126;-80
2023/02/12 10:34:39;;;;;;;2.65;1.65;;;9.30;99.90;;;;;;4897312;29;20470;-80
2023/02/12 10:37:06;;;;;;;4.25;1.85;;;9.40;99.90;;;;;;4883468;29;20490;-79
2023/02/12 10:39:33;;;;;;;4.20;1.90;;;9.30;99.90;;;;;;4883806;29;20112;-81
2023/02/12 10:41:59;;;;;;;3.88;1.88;;;9.30;99.90;;;;;;4897322;29;20062;-79
2023/02/12 10:44:26;;;;;;;4.90;1.60;;;9.30;99.90;;;;;;4883943;29;20049;-80
2023/02/12 10:46:52;;;;;;;3.30;1.95;;;9.30;99.90;;;;;;4883375;29;20049;-80
2023/02/12 10:49:19;;;;;;;3.83;1.60;;;9.30;99.90;;;;;;4882740;29;20489;-80
2023/02/12 10:51:47;;;;;;;3.55;1.80;;;9.30;99.90;;;;;;4898712;29;20111;-80
2023/02/12 10:54:14;;;;;;;2.72;2.00;;;9.30;99.90;;;;;;4883229;29;20062;-80
2023/02/12 10:56:40;;;;;;;4.32;1.80;;;9.40;99.90;;;;;;4898360;29;20139;-81
2023/02/12 10:59:07;;;;;;;2.65;1.80;;;9.30;99.90;;;;;;4883667;29;20380;-80
2023/02/12 11:01:33;;;;;;;3.38;2.22;;;9.30;99.90;;;;;;4897009;29;20048;-81
2023/02/12 11:04:00;;;;;;;4.43;2.40;;;9.30;99.90;;;;;;4883984;29;20037;-80
2023/02/12 11:06:27;;;;;;;3.50;1.92;;;9.30;99.90;;;;;;4882145;29;20149;-80
2023/02/12 11:08:54;;;;;;;3.05;2.05;;;9.40;99.90;;;;;;4881267;29;20044;-81
2023/02/12 11:11:20;;;;;;;3.15;1.98;;;9.40;99.90;;;;;;4882280;29;20045;-80
2023/02/12 11:13:47;;;;;;;3.33;2.22;;;9.40;99.90;;;;;;4883510;29;20099;-80
2023/02/12 11:16:16;;;;;;;2.85;1.90;;;9.50;99.90;;;;;;4896889;29;20044;-79
2023/02/12 11:18:43;;;;;;;3.15;2.10;;;9.60;99.90;;;;;;4882577;29;20072;-80
2023/02/12 11:21:09;;;;;;;2.63;1.90;;;9.60;99.90;;;;;;4882017;29;20072;-81
2023/02/12 11:23:39;;;;;;;3.42;2.25;;;9.60;99.90;;;;;;4897781;29;20364;-81
2023/02/12 11:26:06;;;;;;;;;;;9.70;99.90;;;;;;4883278;29;20076;-80
2023/02/12 11:28:32;;;;;;;3.10;2.00;;;9.70;99.90;;;;;;4897757;29;19931;-80
2023/02/12 11:30:59;;;;;;;3.78;1.90;;;9.60;99.90;;;;;;4876416;29;20372;-79
2023/02/12 11:33:26;;;;;;;5.03;2.30;;;9.60;99.90;;;;;;4896774;29;20459;-81
2023/02/12 11:35:53;;;;;;;3.38;2.22;;;9.60;99.90;;;;;;4880954;29;20049;-80
2023/02/12 11:38:19;;;;;;;3.60;2.00;;;9.60;99.90;;;;;;4881453;29;20599;-82
2023/02/12 11:40:46;;;;;;;2.80;1.75;;;9.60;99.90;;;;;;4897011;29;20041;-82
2023/02/12 11:43:12;;;;;;;2.80;2.00;;;9.60;99.90;;;;;;4897417;29;20094;-81
2023/02/12 11:45:40;;;;;;;3.85;2.20;;;9.60;99.90;;;;;;4897133;29;20068;-80
2023/02/12 11:48:07;;;;;;;3.90;1.98;;;9.60;99.90;;;;;;4891867;29;20060;-81
2023/02/12 11:50:33;;;;;;;2.17;1.58;;;9.70;99.90;;;;;;4899526;29;20055;-80
2023/02/12 11:53:00;;;;;;;2.97;1.90;;;9.60;99.90;;;;;;4900553;29;20139;-81
2023/02/12 11:55:27;;;;;;;3.00;1.80;;;9.50;99.90;;;;;;4915178;29;20143;-81
2023/02/12 11:57:53;;;;;;;3.63;1.80;;;9.50;99.90;;;;;;4915646;29;20494;-81
2023/02/12 12:00:20;;;;;;;3.53;1.90;;;9.50;99.90;;;;;;4915926;29;20052;-81
2023/02/12 12:02:49;;;;;;;3.83;1.75;;;9.50;99.90;;;;;;4900404;29;20131;-82
2023/02/12 12:08:01;;;;;;;3.65;2.35;;;9.50;99.90;;;;;;4900096;29;20055;-80
2023/02/12 12:10:28;;;;;;;2.95;1.90;;;9.60;99.90;;;;;;4915837;29;20132;-81
2023/02/12 12:12:55;;;;;;;3.03;1.88;;;9.70;99.90;;;;;;4885254;29;20377;-82
2023/02/12 12:20:57;;;;;;;3.28;2.13;;;9.70;99.90;;;;;;4881137;29;20104;-82
2023/02/12 12:23:23;;;;;;;3.13;2.10;;;9.60;99.90;;;;;;4896745;29;20048;-83
2023/02/12 12:25:51;;;;;;;4.32;1.85;;;9.60;99.90;;;;;;4882036;29;20524;-83
2023/02/12 12:28:18;;;;;;;2.97;1.75;;;9.70;99.90;;;;;;4895623;29;20353;-82
2023/02/12 12:30:45;;;;;;;2.97;1.88;;;9.60;99.90;;;;;;4896691;29;20049;-82
2023/02/12 12:33:11;;;;;;;3.42;2.25;;;9.60;99.90;;;;;;4896573;29;20113;-83
2023/02/12 12:35:40;;;;;;;2.83;2.00;;;9.50;99.90;;;;;;4895656;29;20044;-82
2023/02/12 12:38:07;;;;;;;4.47;2.07;;;9.40;99.90;;;;;;4896005;29;20116;-83
2023/02/12 12:40:33;;;;;;;5.10;2.08;;;9.50;99.90;;;;;;4896333;29;20280;-84
2023/02/12 12:43:00;;;;;;;3.95;2.33;;;9.40;99.90;;;;;;4880923;29;20516;-83
2023/02/12 12:45:27;;;;;;;4.68;2.50;;;9.40;99.90;;;;;;4881692;29;20056;-81
2023/02/12 12:47:54;;;;;;;2.60;1.70;;;9.40;99.90;;;;;;4895452;29;20043;-81
2023/02/12 12:50:20;;;;;;;4.10;2.38;;;9.30;99.90;;;;;;4881612;29;20045;-82
2023/02/12 12:52:47;;;;;;;4.72;2.25;;;9.20;99.90;;;;;;4895471;29;20056;-81
2023/02/12 12:57:59;;;;;;;4.47;2.22;;;9.20;99.90;;;;;;4880841;29;20484;-81